Time;durP1;ratioP1;P1;durP2;ratioP2;P2;SDS_P1;SDS_P2;PMS_P1;PMS_P2;Temp;Humidity;BMP_temperature;BMP_pressure;BME280_temperature;BME280_humidity;BME280_pressure;Samples;Min_cycle;Max_cycle;Signal;HPM_P1;HPM_P2
2022/03/21 00:00:21;;;;;;;;;;;23.90;39.90;;;;;;1559966;76;751;-69
2022/03/21 00:02:23;;;;;;;;;;;23.90;39.90;;;;;;1560646;75;743;-68
2022/03/21 00:04:25;;;;;;;;;;;23.90;39.90;;;;;;1559915;76;823;-67
2022/03/21 00:06:27;;;;;;;;;;;23.90;39.90;;;;;;1559861;75;1166;-66
2022/03/21 00:08:29;;;;;;;;;;;23.90;39.90;;;;;;1559922;76;1944;-65
2022/03/21 00:10:35;;;;;;;;;;;23.90;39.90;;;;;;1560076;76;653;-66
2022/03/21 00:12:35;;;;;;;;;;;23.90;40.00;;;;;;1558599;75;1362;-68
2022/03/21 00:14:37;;;;;;;;;;;23.90;39.90;;;;;;1559933;76;802;-66
2022/03/21 00:16:40;;;;;;;;;;;23.80;39.90;;;;;;1559885;76;1115;-66
2022/03/21 00:18:42;;;;;;;;;;;23.90;40.00;;;;;;1559917;76;540;-66
2022/03/21 00:20:45;;;;;;;;;;;23.80;40.00;;;;;;1560797;75;791;-65
2022/03/21 00:22:47;;;;;;;;;;;23.90;40.10;;;;;;1559779;76;740;-64
2022/03/21 00:24:50;;;;;;;;;;;23.90;40.10;;;;;;1560764;75;1153;-66
2022/03/21 00:26:51;;;;;;;;;;;23.90;40.20;;;;;;1559960;76;609;-67
2022/03/21 00:28:54;;;;;;;;;;;23.90;40.20;;;;;;1559842;76;1928;-66
2022/03/21 00:30:56;;;;;;;;;;;23.90;40.10;;;;;;1559930;75;630;-66
2022/03/21 00:32:57;;;;;;;;;;;24.00;40.10;;;;;;1560818;75;752;-66
2022/03/21 00:34:59;;;;;;;;;;;24.00;40.10;;;;;;1559816;76;1141;-67
2022/03/21 00:37:01;;;;;;;;;;;24.00;40.20;;;;;;1559906;76;718;-69
2022/03/21 00:39:03;;;;;;;;;;;23.90;40.20;;;;;;1542905;76;740;-66
2022/03/21 00:41:05;;;;;;;;;;;24.00;40.20;;;;;;1559879;75;712;-66
2022/03/21 00:43:08;;;;;;;;;;;24.00;40.30;;;;;;1559947;76;710;-66
2022/03/21 00:45:12;;;;;;;;;;;24.00;40.30;;;;;;1559693;76;1134;-66
2022/03/21 00:47:15;;;;;;;;;;;23.90;40.30;;;;;;1559562;76;1698;-66
2022/03/21 00:49:17;;;;;;;;;;;24.00;40.40;;;;;;1560644;75;1915;-68
2022/03/21 00:51:18;;;;;;;;;;;24.00;40.20;;;;;;1559764;76;684;-66
2022/03/21 00:53:20;;;;;;;;;;;24.00;40.30;;;;;;1559970;76;744;-68
2022/03/21 00:55:26;;;;;;;;;;;24.00;40.30;;;;;;1560507;75;1183;-66
2022/03/21 00:57:26;;;;;;;;;;;23.90;40.40;;;;;;1559802;76;1671;-67
2022/03/21 00:59:28;;;;;;;;;;;23.90;40.40;;;;;;1560036;76;718;-66
2022/03/21 01:01:30;;;;;;;;;;;23.90;40.40;;;;;;1559952;75;663;-66
2022/03/21 01:03:32;;;;;;;;;;;24.00;40.30;;;;;;1560784;75;875;-65
2022/03/21 01:05:34;;;;;;;;;;;24.00;40.40;;;;;;1559833;76;1177;-67
2022/03/21 01:07:36;;;;;;;;;;;24.00;40.40;;;;;;1559804;76;774;-65
2022/03/21 01:09:38;;;;;;;;;;;24.00;40.30;;;;;;1559994;76;1916;-66
2022/03/21 01:11:40;;;;;;;;;;;23.90;40.40;;;;;;1560792;75;682;-66
2022/03/21 01:13:42;;;;;;;;;;;24.00;40.30;;;;;;1560023;76;796;-68
2022/03/21 01:15:44;;;;;;;;;;;23.90;40.40;;;;;;1559954;76;1090;-68
2022/03/21 01:17:46;;;;;;;;;;;24.00;40.50;;;;;;1559932;76;839;-66
2022/03/21 01:19:48;;;;;;;;;;;23.90;40.50;;;;;;1560730;75;771;-65
2022/03/21 01:21:50;;;;;;;;;;;24.00;40.50;;;;;;1560112;76;667;-67
2022/03/21 01:23:52;;;;;;;;;;;23.90;40.50;;;;;;1559853;76;783;-68
2022/03/21 01:25:54;;;;;;;;;;;23.90;40.50;;;;;;1560720;75;1150;-66
2022/03/21 01:27:56;;;;;;;;;;;23.90;40.70;;;;;;1553383;75;781;-66
2022/03/21 01:29:58;;;;;;;;;;;24.00;40.60;;;;;;1559382;76;1932;-67
2022/03/21 01:32:00;;;;;;;;;;;24.00;40.60;;;;;;1560089;76;783;-68
2022/03/21 01:34:02;;;;;;;;;;;24.00;40.70;;;;;;1560722;75;780;-66
2022/03/21 01:36:04;;;;;;;;;;;24.00;40.70;;;;;;1560079;76;1131;-67
2022/03/21 01:38:06;;;;;;;;;;;23.90;40.70;;;;;;1547922;76;826;-66
2022/03/21 01:40:08;;;;;;;;;;;24.00;40.60;;;;;;1554565;76;761;-66
2022/03/21 01:42:10;;;;;;;;;;;23.90;40.70;;;;;;1557900;76;788;-63
2022/03/21 01:44:12;;;;;;;;;;;24.00;40.70;;;;;;1560350;75;723;-66
2022/03/21 01:46:14;;;;;;;;;;;23.90;40.70;;;;;;1559908;76;1134;-67
2022/03/21 01:48:16;;;;;;;;;;;23.90;40.70;;;;;;1560030;76;753;-66
2022/03/21 01:50:18;;;;;;;;;;;23.90;40.70;;;;;;1559867;76;1946;-66
2022/03/21 01:52:21;;;;;;;;;;;24.00;40.70;;;;;;1560829;75;771;-69
2022/03/21 01:56:43;;;;;;;;;;;24.00;40.60;;;;;;1559800;76;1689;-66
2022/03/21 01:58:45;;;;;;;;;;;24.00;40.60;;;;;;1546940;75;649;-66
2022/03/21 02:00:47;;;;;;;;;;;24.00;40.60;;;;;;1557884;75;639;-69
2022/03/21 02:02:49;;;;;;;;;;;24.00;40.60;;;;;;1557327;75;725;-67
2022/03/21 02:04:50;;;;;;;;;;;24.00;40.60;;;;;;1559755;76;1161;-66
2022/03/21 02:06:52;;;;;;;;;;;24.00;40.60;;;;;;1558581;76;789;-68
2022/03/21 02:08:56;;;;;;;;;;;24.00;40.60;;;;;;1559957;76;1938;-67
2022/03/21 02:10:58;;;;;;;;;;;24.10;40.70;;;;;;1560462;75;1814;-65
2022/03/21 02:13:00;;;;;;;;;;;24.00;40.60;;;;;;1559828;76;787;-66
2022/03/21 02:15:02;;;;;;;;;;;24.10;40.70;;;;;;1559968;76;1142;-67
2022/03/21 02:17:04;;;;;;;;;;;24.00;40.60;;;;;;1559831;76;815;-66
2022/03/21 02:19:10;;;;;;;;;;;24.00;40.60;;;;;;1560834;75;718;-66
2022/03/21 02:21:14;;;;;;;;;;;24.10;40.70;;;;;;1537465;76;2270;-67
2022/03/21 02:23:34;;;;;;;;;;;24.00;40.70;;;;;;1532351;76;893;-65
2022/03/21 02:25:37;;;;;;;;;;;24.00;40.70;;;;;;1555304;75;1079;-66
2022/03/21 02:27:39;;;;;;;;;;;24.00;40.70;;;;;;1560015;76;789;-66
2022/03/21 02:29:41;;;;;;;;;;;24.00;40.80;;;;;;1534963;76;1941;-66
2022/03/21 02:31:42;;;;;;;;;;;24.00;40.80;;;;;;1532540;77;735;-68
2022/03/21 02:33:46;;;;;;;;;;;24.00;40.90;;;;;;1510528;76;807;-65
2022/03/21 02:35:48;;;;;;;;;;;23.90;40.90;;;;;;1533140;76;1132;-66
2022/03/21 02:37:50;;;;;;;;;;;24.00;40.80;;;;;;1540217;76;776;-66
2022/03/21 02:39:52;;;;;;;;;;;24.00;40.80;;;;;;1532524;77;801;-66
2022/03/21 02:41:54;;;;;;;;;;;24.00;40.80;;;;;;1532485;77;740;-68
2022/03/21 02:43:57;;;;;;;;;;;24.00;40.80;;;;;;1545984;75;721;-68
2022/03/21 02:46:05;;;;;;;;;;;24.00;40.70;;;;;;1559905;76;1094;-65
2022/03/21 02:48:07;;;;;;;;;;;24.00;40.70;;;;;;1559935;76;883;-65
2022/03/21 02:50:11;;;;;;;;;;;24.10;40.90;;;;;;1559786;76;1950;-66
2022/03/21 02:52:13;;;;;;;;;;;24.10;40.80;;;;;;1559194;76;2104;-68
2022/03/21 02:54:19;;;;;;;;;;;24.20;40.70;;;;;;1554719;75;846;-69
2022/03/21 02:56:20;;;;;;;;;;;24.10;40.80;;;;;;1559168;76;1586;-66
2022/03/21 02:58:22;;;;;;;;;;;24.00;40.80;;;;;;1559965;76;706;-66
2022/03/21 03:00:24;;;;;;;;;;;24.10;40.90;;;;;;1560134;76;795;-65
2022/03/21 03:02:26;;;;;;;;;;;24.10;41.00;;;;;;1560243;75;731;-66
2022/03/21 03:04:27;;;;;;;;;;;24.10;41.00;;;;;;1559952;76;726;-65
2022/03/21 03:06:29;;;;;;;;;;;24.00;41.00;;;;;;1559966;76;1106;-67
2022/03/21 03:08:32;;;;;;;;;;;24.10;41.10;;;;;;1560085;76;686;-66
2022/03/21 03:10:33;;;;;;;;;;;24.10;41.20;;;;;;1560031;76;1938;-67
2022/03/21 03:12:35;;;;;;;;;;;24.10;41.20;;;;;;1560833;75;782;-69
2022/03/21 03:14:37;;;;;;;;;;;24.00;41.00;;;;;;1560123;76;790;-67
2022/03/21 03:16:39;;;;;;;;;;;24.00;41.10;;;;;;1548119;75;1128;-66
2022/03/21 03:18:44;;;;;;;;;;;24.10;41.30;;;;;;1541127;75;785;-66
2022/03/21 03:20:47;;;;;;;;;;;24.00;41.10;;;;;;1542833;76;1575;-70
2022/03/21 03:22:49;;;;;;;;;;;24.00;41.20;;;;;;1543623;76;930;-66
2022/03/21 03:24:50;;;;;;;;;;;24.00;41.10;;;;;;1541225;75;1138;-67
2022/03/21 03:26:52;;;;;;;;;;;24.10;41.30;;;;;;1547976;76;775;-66
2022/03/21 03:28:54;;;;;;;;;;;24.20;41.10;;;;;;1530834;75;737;-66
2022/03/21 03:30:56;;;;;;;;;;;24.10;41.30;;;;;;1559978;76;1939;-69
2022/03/21 03:32:58;;;;;;;;;;;24.20;41.20;;;;;;1560165;75;741;-66
2022/03/21 03:35:00;;;;;;;;;;;24.10;41.30;;;;;;1556604;76;1108;-67
2022/03/21 03:37:02;;;;;;;;;;;24.00;41.40;;;;;;1533946;77;759;-66
2022/03/21 03:39:04;;;;;;;;;;;23.90;41.70;;;;;;1533825;77;808;-67
2022/03/21 03:41:06;;;;;;;;;;;23.90;42.00;;;;;;1533923;77;587;-66
2022/03/21 03:43:08;;;;;;;;;;;23.80;42.10;;;;;;1543284;75;721;-67
2022/03/21 03:47:36;;;;;;;;;;;23.80;42.50;;;;;;1617795;73;682;-66
2022/03/21 03:49:37;;;;;;;;;;;23.70;42.60;;;;;;1627060;73;1913;-68
2022/03/21 03:51:39;;;;;;;;;;;23.70;42.80;;;;;;1601825;73;763;-68
2022/03/21 03:53:41;;;;;;;;;;;23.70;42.90;;;;;;1624057;72;768;-68
2022/03/21 03:55:43;;;;;;;;;;;23.70;42.90;;;;;;1596301;73;1221;-68
2022/03/21 03:57:45;;;;;;;;;;;23.60;42.80;;;;;;1571161;76;731;-69
2022/03/21 03:59:47;;;;;;;;;;;23.70;43.00;;;;;;1571299;76;642;-69
2022/03/21 04:01:50;;;;;;;;;;;23.70;43.10;;;;;;1571402;76;566;-69
2022/03/21 04:03:52;;;;;;;;;;;23.60;42.90;;;;;;1571226;76;645;-70
2022/03/21 04:05:54;;;;;;;;;;;23.70;43.10;;;;;;1597064;73;1107;-69
2022/03/21 04:07:56;;;;;;;;;;;23.70;43.00;;;;;;1598267;74;775;-70
2022/03/21 04:09:57;;;;;;;;;;;23.70;43.10;;;;;;1598393;74;1985;-70
2022/03/21 04:11:59;;;;;;;;;;;23.70;43.10;;;;;;1598516;74;724;-70
2022/03/21 04:14:01;;;;;;;;;;;23.70;43.10;;;;;;1585341;74;803;-70
2022/03/21 04:16:03;;;;;;;;;;;23.70;43.10;;;;;;1570933;74;1149;-68
2022/03/21 04:18:05;;;;;;;;;;;23.60;43.10;;;;;;1570732;76;728;-69
2022/03/21 04:20:07;;;;;;;;;;;23.70;43.40;;;;;;1574133;74;798;-69
2022/03/21 04:22:09;;;;;;;;;;;23.70;43.30;;;;;;1590832;73;734;-67
2022/03/21 04:24:11;;;;;;;;;;;23.70;43.40;;;;;;1580351;74;785;-66
2022/03/21 04:26:13;;;;;;;;;;;23.70;43.30;;;;;;1585600;74;1121;-67
2022/03/21 04:28:15;;;;;;;;;;;23.80;43.20;;;;;;1592705;74;739;-67
2022/03/21 04:30:17;;;;;;;;;;;23.80;43.20;;;;;;1597578;74;1929;-66
2022/03/21 04:32:19;;;;;;;;;;;23.70;43.30;;;;;;1589872;74;720;-65
2022/03/21 04:34:20;;;;;;;;;;;23.70;43.20;;;;;;1588375;74;783;-65
2022/03/21 04:36:23;;;;;;;;;;;23.80;43.10;;;;;;1588193;73;1133;-66
2022/03/21 04:38:24;;;;;;;;;;;23.70;43.10;;;;;;1548275;75;779;-66
2022/03/21 04:40:26;;;;;;;;;;;23.80;43.10;;;;;;1548376;75;801;-69
2022/03/21 04:42:28;;;;;;;;;;;23.80;43.10;;;;;;1541527;75;775;-66
2022/03/21 04:44:30;;;;;;;;;;;23.80;43.10;;;;;;1543063;76;770;-66
2022/03/21 04:46:32;;;;;;;;;;;23.80;43.10;;;;;;1540898;76;1145;-66
2022/03/21 04:48:34;;;;;;;;;;;23.70;43.10;;;;;;1544894;76;715;-66
2022/03/21 04:50:36;;;;;;;;;;;23.70;43.00;;;;;;1570063;76;1934;-72
2022/03/21 04:52:37;;;;;;;;;;;23.70;43.10;;;;;;1584121;74;689;-67
2022/03/21 04:54:40;;;;;;;;;;;23.90;43.10;;;;;;1580324;74;807;-70
2022/03/21 04:56:42;;;;;;;;;;;23.80;43.00;;;;;;1583684;74;1179;-67
2022/03/21 04:58:44;;;;;;;;;;;23.80;43.00;;;;;;1583023;74;799;-68
2022/03/21 05:00:46;;;;;;;;;;;23.90;43.10;;;;;;1569483;76;751;-69
2022/03/21 05:02:47;;;;;;;;;;;23.80;42.90;;;;;;1569141;76;654;-66
2022/03/21 05:04:49;;;;;;;;;;;23.90;43.10;;;;;;1589828;74;751;-67
2022/03/21 05:06:52;;;;;;;;;;;23.90;43.20;;;;;;1598410;73;1122;-69
2022/03/21 05:08:54;;;;;;;;;;;23.90;43.10;;;;;;1598409;74;652;-70
2022/03/21 05:10:56;;;;;;;;;;;23.80;43.10;;;;;;1598510;74;1909;-71
2022/03/21 05:12:58;;;;;;;;;;;23.90;43.10;;;;;;1598159;74;711;-69
2022/03/21 05:15:00;;;;;;;;;;;23.90;43.10;;;;;;1598123;74;817;-69
2022/03/21 05:17:02;;;;;;;;;;;23.90;43.10;;;;;;1598372;73;1105;-67
2022/03/21 05:19:04;;;;;;;;;;;23.80;43.00;;;;;;1598225;74;726;-68
2022/03/21 05:21:06;;;;;;;;;;;23.90;43.10;;;;;;1598165;74;803;-68
2022/03/21 05:32:28;;;;;;;;;;;23.90;43.20;;;;;;1598390;74;1628;-71
2022/03/21 05:36:50;;;;;;;;;;;23.90;43.40;;;;;;1598487;73;1626;-70
2022/03/21 05:38:52;;;;;;;;;;;24.00;43.40;;;;;;1605218;73;771;-71
2022/03/21 05:40:58;;;;;;;;;;;24.00;43.30;;;;;;1602775;73;752;-71
2022/03/21 05:42:58;;;;;;;;;;;23.90;43.30;;;;;;1597717;74;986;-67
2022/03/21 05:45:00;;;;;;;;;;;24.00;43.40;;;;;;1598434;74;790;-68
2022/03/21 05:47:02;;;;;;;;;;;24.00;43.20;;;;;;1598034;73;1093;-63
2022/03/21 05:49:04;;;;;;;;;;;24.00;43.40;;;;;;1597914;74;710;-63
2022/03/21 05:51:06;;;;;;;;;;;24.00;42.90;;;;;;1598140;74;1940;-63
2022/03/21 05:53:11;;;;;;;;;;;24.00;42.50;;;;;;1598333;74;768;-63
2022/03/21 05:55:12;;;;;;;;;;;24.00;42.30;;;;;;1597275;74;680;-63
2022/03/21 05:57:14;;;;;;;;;;;24.00;42.10;;;;;;1587999;73;1086;-63
2022/03/21 06:01:36;;;;;;;;;;;24.00;42.10;;;;;;1589526;73;1651;-64
2022/03/21 06:03:38;;;;;;;;;;;24.00;42.10;;;;;;1593363;73;750;-65
2022/03/21 06:05:40;;;;;;;;;;;24.00;42.00;;;;;;1583100;73;1176;-64
2022/03/21 06:07:42;;;;;;;;;;;24.10;41.50;;;;;;1584557;74;719;-63
2022/03/21 06:09:44;;;;;;;;;;;24.00;41.50;;;;;;1596350;74;726;-64
2022/03/21 06:11:48;;;;;;;;;;;24.00;41.60;;;;;;1596327;73;1962;-63
2022/03/21 06:13:50;;;;;;;;;;;24.00;41.60;;;;;;1616663;73;1766;-64
2022/03/21 06:15:52;;;;;;;;;;;24.00;41.60;;;;;;1616871;72;1141;-65
2022/03/21 06:17:59;;;;;;;;;;;24.00;41.90;;;;;;1604269;73;768;-66
2022/03/21 06:19:57;;;;;;;;;;;24.00;41.90;;;;;;1595473;73;1635;-65
2022/03/21 06:21:59;;;;;;;;;;;24.00;41.90;;;;;;1589088;74;699;-66
2022/03/21 06:24:01;;;;;;;;;;;24.00;41.90;;;;;;1591539;74;811;-63
2022/03/21 06:26:03;;;;;;;;;;;24.00;42.00;;;;;;1575548;74;1148;-63
2022/03/21 06:28:05;;;;;;;;;;;24.00;41.90;;;;;;1588697;75;860;-61
2022/03/21 06:30:08;;;;;;;;;;;24.00;41.90;;;;;;1593125;74;1978;-62
2022/03/21 06:32:10;;;;;;;;;;;24.00;41.80;;;;;;1598208;74;693;-62
2022/03/21 06:34:13;;;;;;;;;;;24.00;41.60;;;;;;1597113;74;702;-62
2022/03/21 06:36:14;;;;;;;;;;;24.00;41.50;;;;;;1598169;73;1146;-62
2022/03/21 06:38:16;;;;;;;;;;;24.00;41.50;;;;;;1598028;74;680;-65
2022/03/21 06:40:18;;;;;;;;;;;23.90;41.40;;;;;;1600680;73;787;-63
2022/03/21 06:42:21;;;;;;;;;;;24.00;41.50;;;;;;1602446;73;734;-64
2022/03/21 06:44:23;;;;;;;;;;;23.90;41.30;;;;;;1594510;74;744;-62
2022/03/21 06:46:25;;;;;;;;;;;24.00;41.20;;;;;;1590886;73;1137;-63
2022/03/21 06:48:31;;;;;;;;;;;24.00;41.20;;;;;;1591259;74;727;-63
2022/03/21 06:50:30;;;;;;;;;;;24.00;41.10;;;;;;1585430;74;1929;-61
2022/03/21 06:52:35;;;;;;;;;;;24.00;41.20;;;;;;1599775;73;780;-60
2022/03/21 06:54:36;;;;;;;;;;;24.00;41.00;;;;;;1596709;74;1640;-62
2022/03/21 06:56:38;;;;;;;;;;;24.00;40.90;;;;;;1597535;73;1129;-61
2022/03/21 06:58:40;;;;;;;;;;;24.00;40.80;;;;;;1603694;73;778;-61
2022/03/21 07:00:42;;;;;;;;;;;24.00;40.70;;;;;;1597273;74;901;-62
2022/03/21 07:02:44;;;;;;;;;;;24.00;40.70;;;;;;1592236;74;743;-62
2022/03/21 07:04:46;;;;;;;;;;;24.00;40.70;;;;;;1596830;73;795;-63
2022/03/21 07:06:48;;;;;;;;;;;24.00;40.60;;;;;;1593567;72;1172;-64
2022/03/21 07:08:51;;;;;;;;;;;24.00;40.60;;;;;;1605888;73;742;-61
2022/03/21 07:10:53;;;;;;;;;;;24.00;40.50;;;;;;1598171;74;2084;-62
2022/03/21 07:12:55;;;;;;;;;;;24.10;40.70;;;;;;1597130;74;778;-62
2022/03/21 07:14:57;;;;;;;;;;;24.00;40.50;;;;;;1597257;74;787;-65
2022/03/21 07:16:59;;;;;;;;;;;24.10;40.60;;;;;;1594954;73;1141;-61
2022/03/21 07:19:01;;;;;;;;;;;24.10;40.70;;;;;;1596217;74;727;-60
2022/03/21 07:21:03;;;;;;;;;;;24.00;40.50;;;;;;1591500;74;693;-61
2022/03/21 07:23:05;;;;;;;;;;;24.00;40.30;;;;;;1593818;73;745;-62
2022/03/21 07:25:07;;;;;;;;;;;24.00;40.30;;;;;;1591272;73;741;-62
2022/03/21 07:27:09;;;;;;;;;;;24.10;40.50;;;;;;1585011;73;1152;-60
2022/03/21 07:29:12;;;;;;;;;;;24.00;40.20;;;;;;1545193;77;818;-59
2022/03/21 07:31:14;;;;;;;;;;;24.10;40.20;;;;;;1547331;77;1923;-61
2022/03/21 07:33:16;;;;;;;;;;;24.20;40.40;;;;;;1587712;75;800;-62
2022/03/21 07:35:17;;;;;;;;;;;24.20;40.30;;;;;;1581666;75;727;-64
2022/03/21 07:37:20;;;;;;;;;;;24.20;40.30;;;;;;1587187;75;775;-62
2022/03/21 07:39:22;;;;;;;;;;;24.20;40.20;;;;;;1585922;75;798;-63
2022/03/21 07:41:26;;;;;;;;;;;24.20;40.20;;;;;;1589180;75;666;-62
2022/03/21 07:43:28;;;;;;;;;;;24.20;40.20;;;;;;1589331;75;718;-62
2022/03/21 07:47:49;;;;;;;;;;;24.30;40.20;;;;;;1589350;75;1623;-63
2022/03/21 07:49:51;;;;;;;;;;;24.20;40.10;;;;;;1580627;75;696;-62
2022/03/21 07:51:53;;;;;;;;;;;24.30;40.20;;;;;;1583854;75;1937;-65
2022/03/21 07:53:55;;;;;;;;;;;24.30;40.10;;;;;;1586049;75;676;-63
2022/03/21 07:56:00;;;;;;;;;;;24.20;39.80;;;;;;1588843;73;1150;-65
2022/03/21 07:58:01;;;;;;;;;;;24.30;40.00;;;;;;1589232;75;1679;-62
2022/03/21 08:00:05;;;;;;;;;;;24.30;39.90;;;;;;1586791;75;739;-65
2022/03/21 08:02:06;;;;;;;;;;;24.30;39.80;;;;;;1581316;75;700;-67
2022/03/21 08:04:09;;;;;;;;;;;24.30;39.90;;;;;;1587526;75;789;-70
2022/03/21 08:06:11;;;;;;;;;;;24.40;39.90;;;;;;1576245;75;1198;-67
2022/03/21 08:08:12;;;;;;;;;;;24.40;40.00;;;;;;1587145;75;732;-67
2022/03/21 08:10:16;;;;;;;;;;;24.50;40.00;;;;;;1583124;75;765;-68
2022/03/21 08:12:17;;;;;;;;;;;24.50;40.10;;;;;;1589212;75;1903;-66
2022/03/21 08:14:19;;;;;;;;;;;24.50;40.10;;;;;;1590630;75;759;-67
2022/03/21 08:16:22;;;;;;;;;;;24.50;40.00;;;;;;1590719;73;1146;-68
2022/03/21 08:18:25;;;;;;;;;;;24.60;40.00;;;;;;1588452;75;818;-67
2022/03/21 08:20:33;;;;;;;;;;;24.60;40.00;;;;;;1584599;75;923;-67
2022/03/21 08:22:31;;;;;;;;;;;24.70;40.10;;;;;;1579722;75;1652;-67
2022/03/21 08:24:36;;;;;;;;;;;24.70;40.00;;;;;;1589675;75;688;-69
2022/03/21 08:26:37;;;;;;;;;;;24.70;40.00;;;;;;1580557;75;1155;-64
2022/03/21 08:28:39;;;;;;;;;;;24.80;40.00;;;;;;1586779;75;756;-69
2022/03/21 08:30:41;;;;;;;;;;;24.70;40.00;;;;;;1586567;75;756;-68
2022/03/21 08:32:43;;;;;;;;;;;24.80;39.90;;;;;;1585463;75;1941;-70
2022/03/21 08:34:45;;;;;;;;;;;24.80;39.90;;;;;;1576909;75;741;-67
2022/03/21 08:36:47;;;;;;;;;;;24.80;40.00;;;;;;1575467;75;1129;-67
2022/03/21 08:38:49;;;;;;;;;;;24.90;40.00;;;;;;1583637;75;766;-67
2022/03/21 08:40:51;;;;;;;;;;;24.80;39.90;;;;;;1582308;75;740;-69
2022/03/21 08:42:53;;;;;;;;;;;24.80;39.90;;;;;;1586020;75;775;-68
2022/03/21 08:44:56;;;;;;;;;;;24.80;39.90;;;;;;1572700;75;719;-67
2022/03/21 08:46:58;;;;;;;;;;;24.90;39.80;;;;;;1583667;73;1165;-67
2022/03/21 08:51:20;;;;;;;;;;;25.20;39.40;;;;;;1582409;75;1913;-65
2022/03/21 08:53:22;;;;;;;;;;;25.20;38.80;;;;;;1587327;75;785;-65
2022/03/21 08:55:24;;;;;;;;;;;25.40;38.30;;;;;;1589504;73;1126;-65
2022/03/21 08:57:25;;;;;;;;;;;25.50;37.80;;;;;;1587077;75;737;-66
2022/03/21 08:59:27;;;;;;;;;;;25.40;37.50;;;;;;1590889;75;788;-67
2022/03/21 09:01:29;;;;;;;;;;;25.50;37.30;;;;;;1583629;75;685;-68
2022/03/21 09:03:31;;;;;;;;;;;25.50;36.90;;;;;;1587433;75;652;-66
2022/03/21 09:05:33;;;;;;;;;;;25.40;36.70;;;;;;1584491;73;1201;-69
2022/03/21 09:07:35;;;;;;;;;;;25.50;36.60;;;;;;1589117;75;696;-69
2022/03/21 09:09:37;;;;;;;;;;;25.30;36.30;;;;;;1580972;75;665;-62
2022/03/21 09:11:39;;;;;;;;;;;25.30;36.10;;;;;;1577741;75;1949;-61
2022/03/21 09:13:41;;;;;;;;;;;25.30;35.80;;;;;;1583562;75;842;-61
2022/03/21 09:15:43;;;;;;;;;;;25.30;35.60;;;;;;1589224;73;1142;-61
2022/03/21 09:17:45;;;;;;;;;;;25.20;35.70;;;;;;1589856;75;729;-62
2022/03/21 09:19:47;;;;;;;;;;;25.30;35.60;;;;;;1589494;75;715;-61
2022/03/21 09:21:49;;;;;;;;;;;25.20;35.50;;;;;;1589590;75;772;-62
2022/03/21 09:23:50;;;;;;;;;;;25.20;35.20;;;;;;1588586;75;750;-59
2022/03/21 09:25:52;;;;;;;;;;;25.10;35.00;;;;;;1588811;73;1146;-62
2022/03/21 09:27:54;;;;;;;;;;;25.10;34.90;;;;;;1589288;75;791;-60
2022/03/21 09:29:56;;;;;;;;;;;25.10;34.70;;;;;;1589815;75;720;-61
2022/03/21 09:31:58;;;;;;;;;;;25.20;34.70;;;;;;1589056;75;1985;-61
2022/03/21 09:34:00;;;;;;;;;;;25.20;34.70;;;;;;1582084;75;733;-61
2022/03/21 09:36:03;;;;;;;;;;;25.20;34.70;;;;;;1589809;73;1137;-62
2022/03/21 09:38:05;;;;;;;;;;;25.10;34.50;;;;;;1589193;75;903;-61
2022/03/21 09:40:07;;;;;;;;;;;25.10;34.10;;;;;;1585673;75;815;-60
2022/03/21 09:42:09;;;;;;;;;;;25.10;33.70;;;;;;1588426;75;723;-60
2022/03/21 09:44:11;;;;;;;;;;;25.00;34.00;;;;;;1589948;75;720;-60
2022/03/21 09:46:13;;;;;;;;;;;25.00;33.90;;;;;;1576683;73;2071;-60
2022/03/21 09:48:17;;;;;;;;;;;25.00;33.80;;;;;;1566025;75;696;-60
2022/03/21 09:50:18;;;;;;;;;;;24.90;33.80;;;;;;1562335;76;836;-62
2022/03/21 09:52:21;;;;;;;;;;;25.00;33.60;;;;;;1562184;76;1946;-62
2022/03/21 09:54:23;;;;;;;;;;;24.90;33.80;;;;;;1562277;76;890;-61
2022/03/21 09:56:25;;;;;;;;;;;25.00;33.30;;;;;;1558569;76;1212;-61
2022/03/21 09:58:28;;;;;;;;;;;24.90;33.10;;;;;;1550853;76;788;-60
2022/03/21 10:00:32;;;;;;;;;;;24.90;32.90;;;;;;1533561;76;689;-61
2022/03/21 10:02:34;;;;;;;;;;;24.90;33.00;;;;;;1535482;76;666;-60
2022/03/21 10:04:37;;;;;;;;;;;24.90;33.10;;;;;;1557164;74;683;-62
2022/03/21 10:06:44;;;;;;;;;;;24.90;33.10;;;;;;1557247;76;1119;-62
2022/03/21 10:08:45;;;;;;;;;;;24.90;33.10;;;;;;1523088;76;698;-61
2022/03/21 10:10:54;;;;;;;;;;;24.80;32.50;;;;;;1509517;78;1032;-63
2022/03/21 10:12:56;;;;;;;;;;;24.80;32.70;;;;;;1564000;76;1940;-64
2022/03/21 10:14:59;;;;;;;;;;;24.80;32.70;;;;;;1551943;76;802;-62
2022/03/21 10:17:02;;;;;;;;;;;24.80;32.60;;;;;;1522906;77;1146;-62
2022/03/21 10:19:04;;;;;;;;;;;24.80;32.60;;;;;;1523404;77;770;-63
2022/03/21 10:21:11;;;;;;;;;;;24.70;32.60;;;;;;1555358;76;716;-62
2022/03/21 10:23:19;;;;;;;;;;;24.70;32.40;;;;;;1532130;76;992;-61
2022/03/21 10:25:21;;;;;;;;;;;24.60;32.50;;;;;;1540334;75;776;-61
2022/03/21 10:27:27;;;;;;;;;;;24.70;32.40;;;;;;1540554;77;1119;-61
2022/03/21 10:29:31;;;;;;;;;;;24.70;32.50;;;;;;1539892;77;721;-61
2022/03/21 10:31:34;;;;;;;;;;;24.60;32.30;;;;;;1545498;77;1910;-61
2022/03/21 10:33:36;;;;;;;;;;;24.60;32.20;;;;;;1543906;77;751;-63
2022/03/21 10:35:39;;;;;;;;;;;24.60;32.10;;;;;;1543699;77;632;-65
2022/03/21 10:37:42;;;;;;;;;;;24.50;32.10;;;;;;1531530;77;1830;-62
2022/03/21 10:39:45;;;;;;;;;;;24.50;32.10;;;;;;1533637;77;818;-61
2022/03/21 10:41:47;;;;;;;;;;;24.60;32.10;;;;;;1537106;76;1635;-63
2022/03/21 10:43:54;;;;;;;;;;;24.50;32.10;;;;;;1538123;77;824;-63
2022/03/21 10:45:57;;;;;;;;;;;24.50;32.00;;;;;;1538328;76;1173;-65
2022/03/21 10:47:58;;;;;;;;;;;24.50;31.90;;;;;;1536778;77;803;-60
2022/03/21 10:50:03;;;;;;;;;;;24.50;32.00;;;;;;1542162;77;776;-61
2022/03/21 10:52:07;;;;;;;;;;;24.50;31.90;;;;;;1545847;77;1940;-60
2022/03/21 10:54:09;;;;;;;;;;;24.50;31.70;;;;;;1544940;77;900;-60
2022/03/21 10:56:11;;;;;;;;;;;24.40;31.50;;;;;;1535854;77;1174;-61
2022/03/21 10:58:14;;;;;;;;;;;24.40;31.40;;;;;;1537799;77;657;-60
2022/03/21 11:00:17;;;;;;;;;;;24.40;31.30;;;;;;1535458;77;818;-61
2022/03/21 11:02:19;;;;;;;;;;;24.30;31.40;;;;;;1545128;77;731;-61
2022/03/21 11:04:21;;;;;;;;;;;24.30;31.30;;;;;;1542303;77;769;-61
2022/03/21 11:06:23;;;;;;;;;;;24.30;31.30;;;;;;1508799;78;1170;-63
2022/03/21 11:08:25;;;;;;;;;;;24.30;31.20;;;;;;1534623;77;786;-63
2022/03/21 11:10:27;;;;;;;;;;;24.30;31.30;;;;;;1561866;76;776;-64
2022/03/21 11:12:29;;;;;;;;;;;24.30;31.30;;;;;;1529246;78;2384;-61
2022/03/21 11:14:30;;;;;;;;;;;24.30;31.30;;;;;;1546166;77;903;-65
2022/03/21 11:16:33;;;;;;;;;;;24.30;31.30;;;;;;1532199;77;1098;-61
2022/03/21 11:18:35;;;;;;;;;;;24.20;31.10;;;;;;1529005;76;683;-62
2022/03/21 11:20:37;;;;;;;;;;;24.30;31.20;;;;;;1522017;78;687;-66
2022/03/21 11:22:40;;;;;;;;;;;24.30;31.30;;;;;;1539932;76;749;-68
2022/03/21 11:24:42;;;;;;;;;;;24.20;31.30;;;;;;1537705;76;757;-67
2022/03/21 11:26:54;;;;;;;;;;;24.20;31.50;;;;;;1536871;76;1156;-65
2022/03/21 11:29:16;;;;;;;;;;;24.30;31.80;;;;;;1534454;76;979;-68
2022/03/21 11:31:19;;;;;;;;;;;24.30;31.90;;;;;;1537368;76;689;-66
2022/03/21 11:33:29;;;;;;;;;;;24.30;32.10;;;;;;1542247;76;1942;-65
2022/03/21 11:35:32;;;;;;;;;;;24.30;32.20;;;;;;1537243;76;1963;-65
2022/03/21 11:37:34;;;;;;;;;;;24.40;32.30;;;;;;1537086;76;1114;-65
2022/03/21 11:39:36;;;;;;;;;;;24.40;32.20;;;;;;1539416;76;752;-66
2022/03/21 11:41:38;;;;;;;;;;;24.30;32.20;;;;;;1543327;76;852;-66
2022/03/21 11:43:40;;;;;;;;;;;24.40;32.10;;;;;;1529347;76;712;-64
2022/03/21 11:45:42;;;;;;;;;;;24.40;32.30;;;;;;1541665;76;1100;-66
2022/03/21 11:47:44;;;;;;;;;;;24.40;32.40;;;;;;1533801;76;815;-67
2022/03/21 11:49:46;;;;;;;;;;;24.40;32.50;;;;;;1541134;76;789;-68
2022/03/21 11:51:57;;;;;;;;;;;24.40;32.60;;;;;;1539633;76;785;-69
2022/03/21 11:53:59;;;;;;;;;;;24.30;32.70;;;;;;1538428;76;1932;-66
2022/03/21 11:56:01;;;;;;;;;;;24.30;32.70;;;;;;1540919;76;1142;-66
2022/03/21 11:58:21;;;;;;;;;;;24.20;32.70;;;;;;1541827;77;706;-67
2022/03/21 12:00:26;;;;;;;;;;;24.20;32.70;;;;;;1536852;76;745;-66
2022/03/21 12:02:28;;;;;;;;;;;24.20;32.70;;;;;;1534380;76;1676;-66
2022/03/21 12:04:31;;;;;;;;;;;24.20;32.80;;;;;;1542497;76;792;-66
2022/03/21 12:06:32;;;;;;;;;;;24.20;32.80;;;;;;1547515;76;1113;-67
2022/03/21 12:08:38;;;;;;;;;;;24.10;32.90;;;;;;1547607;76;719;-66
2022/03/21 12:10:40;;;;;;;;;;;24.20;32.90;;;;;;1548242;76;814;-67
2022/03/21 12:12:43;;;;;;;;;;;24.10;33.00;;;;;;1536706;76;1941;-67
2022/03/21 12:14:52;;;;;;;;;;;24.20;32.90;;;;;;1548306;76;743;-67
2022/03/21 12:17:04;;;;;;;;;;;24.10;33.00;;;;;;1547728;76;1605;-67
2022/03/21 12:19:06;;;;;;;;;;;24.00;32.80;;;;;;1538557;76;768;-66
2022/03/21 12:21:11;;;;;;;;;;;24.00;32.90;;;;;;1542398;76;853;-67
2022/03/21 12:23:17;;;;;;;;;;;24.00;33.00;;;;;;1540815;76;807;-67
2022/03/21 12:25:23;;;;;;;;;;;24.00;33.00;;;;;;1541347;76;725;-68
2022/03/21 12:27:36;;;;;;;;;;;24.00;33.00;;;;;;1496592;77;1160;-68
2022/03/21 12:29:39;;;;;;;;;;;24.00;33.10;;;;;;1538120;76;781;-68
2022/03/21 12:31:41;;;;;;;;;;;24.00;33.10;;;;;;1542147;76;925;-71
2022/03/21 12:33:43;;;;;;;;;;;24.00;33.10;;;;;;1537125;76;1915;-66